KROW/ROW METAR and TAF weather

Enter ICAO airport designator
Station Type Date Time Source
KROW METAR 2022/12/08 12:51 UTC NOAA

KROW 081251Z 01004KT 7SM SCT001 SCT075 04/02 A3019 RMK AO2 SLP203 T00390022


Station Type Date Time Source
KROW Decoded METAR 2022/12/08 12:51 UTC NOAA

ROSWELL INDUSTRIAL AIR CENTR, NM, United States (KROW) 33-18N 104-32W 1112M
Dec 08, 2022 - 07:51 AM EST / 2022.12.08 1251 UTC
Wind: from the N (010 degrees) at 5 MPH (4 KT):0
Visibility: 7 mile(s):0
Sky conditions: partly cloudy
Temperature: 39.0 F (3.9 C)
Dew Point: 36.0 F (2.2 C)
Relative Humidity: 88%
Pressure (altimeter): 30.19 in. Hg (1022 hPa)
ob: KROW 081251Z 01004KT 7SM SCT001 SCT075 04/02 A3019 RMK AO2 SLP203 T00390022
cycle: 13

Station Type Date Time Source
KROW TAF 2022/12/08 12:22 UTC NOAA

TAF KROW 081120Z 0812/0912 VRB05KT P6SM VCFG SCT005
TEMPO 0812/0814 3SM BR SCT004
FM081600 VRB06KT P6SM FEW250
FM081900 29006KT P6SM SCT250
FM090100 35005KT P6SM SCT250

Example: see airport list